createdAt,value
2023-03-13T00:00:28.163Z,52.10
2023-03-13T00:02:54.828Z,52.10
2023-03-13T00:05:21.639Z,52.10
2023-03-13T00:07:48.487Z,52.10
2023-03-13T00:10:15.234Z,52.10
2023-03-13T00:12:41.936Z,52.00
2023-03-13T00:15:08.883Z,52.00
2023-03-13T00:17:35.878Z,52.10
2023-03-13T00:20:02.705Z,52.00
2023-03-13T00:22:29.450Z,52.00
2023-03-13T00:25:02.402Z,52.00
2023-03-13T00:27:32.361Z,52.00
2023-03-13T00:29:59.006Z,52.00
2023-03-13T00:32:25.752Z,52.10
2023-03-13T00:34:52.423Z,52.10
2023-03-13T00:37:19.162Z,52.10
2023-03-13T00:39:45.918Z,52.10
2023-03-13T00:42:12.623Z,52.10
2023-03-13T00:44:42.352Z,52.00
2023-03-13T00:47:09.049Z,52.00
2023-03-13T00:49:35.737Z,52.00
2023-03-13T00:52:02.452Z,52.00
2023-03-13T00:54:29.187Z,51.90
2023-03-13T00:57:02.160Z,51.90
2023-03-13T00:59:35.077Z,51.90
2023-03-13T01:02:01.798Z,51.80
2023-03-13T01:04:28.492Z,51.80
2023-03-13T01:06:55.400Z,51.80
2023-03-13T01:09:22.106Z,51.80
2023-03-13T01:11:54.927Z,51.80
2023-03-13T01:14:21.606Z,51.80
2023-03-13T01:16:48.346Z,51.80
2023-03-13T01:19:15.390Z,51.80
2023-03-13T01:21:48.336Z,51.80
2023-03-13T01:24:15.060Z,51.80
2023-03-13T01:26:41.745Z,51.80
2023-03-13T01:29:08.460Z,52.00
2023-03-13T01:31:38.314Z,51.80
2023-03-13T01:34:11.222Z,52.00
2023-03-13T01:36:38.068Z,52.00
2023-03-13T01:39:05.314Z,51.90
2023-03-13T01:41:32.031Z,52.00
2023-03-13T01:43:58.739Z,51.90
2023-03-13T01:46:27.818Z,51.90
2023-03-13T01:48:54.762Z,51.80
2023-03-13T01:51:21.953Z,51.70
2023-03-13T01:53:54.036Z,51.80
2023-03-13T01:56:31.812Z,51.70
2023-03-13T01:59:05.120Z,51.70
2023-03-13T02:01:38.740Z,52.20
2023-03-13T02:04:05.950Z,51.60
2023-03-13T02:06:36.371Z,51.70
2023-03-13T02:09:05.179Z,51.50
2023-03-13T02:11:46.272Z,51.50
2023-03-13T02:14:12.978Z,51.60
2023-03-13T02:16:42.074Z,51.60
2023-03-13T02:19:17.650Z,51.60
2023-03-13T02:21:53.055Z,51.70
2023-03-13T02:24:32.016Z,51.70
2023-03-13T02:26:58.740Z,51.70
2023-03-13T02:29:25.519Z,51.70
2023-03-13T02:31:52.338Z,51.70
2023-03-13T02:34:19.740Z,51.70
2023-03-13T02:36:46.434Z,51.70
2023-03-13T02:39:13.145Z,51.60
2023-03-13T02:41:46.039Z,51.60
2023-03-13T02:44:12.736Z,51.50
2023-03-13T02:46:46.333Z,51.60
2023-03-13T02:49:20.401Z,51.60
2023-03-13T02:51:53.973Z,51.60
2023-03-13T02:54:22.280Z,51.50
2023-03-13T02:56:49.520Z,51.50
2023-03-13T02:59:16.345Z,51.50
2023-03-13T03:01:43.000Z,51.50
2023-03-13T03:04:15.796Z,51.50
2023-03-13T03:06:49.091Z,51.50
2023-03-13T03:09:15.772Z,51.40
2023-03-13T03:11:42.451Z,51.40
2023-03-13T03:14:12.353Z,51.40
2023-03-13T03:16:44.992Z,51.40
2023-03-13T03:19:17.982Z,51.50
2023-03-13T03:21:49.549Z,51.40
2023-03-13T03:24:16.347Z,51.40
2023-03-13T03:26:49.044Z,51.40
2023-03-13T03:29:22.820Z,51.40
2023-03-13T03:31:55.684Z,51.40
2023-03-13T03:34:22.414Z,51.40
2023-03-13T03:36:49.188Z,51.40
2023-03-13T03:39:21.981Z,51.40
2023-03-13T03:41:48.656Z,51.40
2023-03-13T03:44:15.327Z,51.30
2023-03-13T03:46:41.982Z,51.40
2023-03-13T03:49:08.789Z,51.40
2023-03-13T03:51:35.454Z,51.40
2023-03-13T03:54:08.315Z,51.40
2023-03-13T03:56:35.021Z,51.40
2023-03-13T03:59:04.928Z,51.40
2023-03-13T04:01:31.634Z,51.40
2023-03-13T04:03:58.358Z,51.40
2023-03-13T04:06:25.019Z,51.30
2023-03-13T04:08:51.660Z,51.30
2023-03-13T04:11:21.776Z,51.20
2023-03-13T04:13:48.534Z,51.20
2023-03-13T04:16:15.254Z,51.20
2023-03-13T04:18:41.981Z,51.20
2023-03-13T04:21:08.687Z,51.10
2023-03-13T04:23:35.405Z,51.10
2023-03-13T04:26:02.104Z,51.10
2023-03-13T04:28:28.816Z,51.10
2023-03-13T04:30:57.483Z,51.10
2023-03-13T04:33:27.349Z,51.10
2023-03-13T04:35:54.066Z,51.10
2023-03-13T04:38:20.808Z,51.10
2023-03-13T04:40:48.139Z,51.10
2023-03-13T04:43:14.798Z,51.10
2023-03-13T04:45:41.533Z,51.10
2023-03-13T04:48:11.298Z,51.20
2023-03-13T04:50:38.082Z,51.20
2023-03-13T04:53:04.815Z,51.20
2023-03-13T04:55:31.518Z,51.20
2023-03-13T04:57:58.211Z,51.20
2023-03-13T05:00:24.990Z,51.30
2023-03-13T05:02:51.902Z,51.20
2023-03-13T05:05:18.734Z,51.20
2023-03-13T05:07:45.480Z,51.10
2023-03-13T05:10:12.258Z,51.10
2023-03-13T05:12:39.031Z,51.10
2023-03-13T05:15:06.097Z,51.00
2023-03-13T05:17:32.818Z,51.10
2023-03-13T05:19:59.496Z,51.50
2023-03-13T05:22:26.216Z,50.90
2023-03-13T05:24:52.942Z,50.90
2023-03-13T05:27:19.629Z,50.90
2023-03-13T05:29:46.290Z,50.90
2023-03-13T05:32:12.962Z,50.90
2023-03-13T05:34:39.675Z,50.90
2023-03-13T05:37:09.507Z,50.90
2023-03-13T05:39:36.196Z,51.00
2023-03-13T05:42:02.882Z,51.10
2023-03-13T05:44:29.602Z,51.00
2023-03-13T05:46:56.252Z,51.00
2023-03-13T05:49:29.201Z,51.60
2023-03-13T05:51:59.316Z,51.00
2023-03-13T05:54:26.014Z,51.10
2023-03-13T05:56:52.687Z,51.00
2023-03-13T05:59:19.642Z,51.00
2023-03-13T06:01:46.340Z,51.00
2023-03-13T06:04:13.161Z,51.10
2023-03-13T06:06:46.330Z,50.80
2023-03-13T06:09:16.209Z,51.10
2023-03-13T06:11:42.966Z,51.20
2023-03-13T06:14:11.647Z,51.20
2023-03-13T06:16:38.327Z,51.40
2023-03-13T06:19:04.983Z,51.30
2023-03-13T06:21:31.663Z,51.50
2023-03-13T06:23:58.372Z,51.50
2023-03-13T06:26:25.821Z,51.40
2023-03-13T06:28:52.572Z,52.10
2023-03-13T06:31:22.451Z,51.40
2023-03-13T06:33:50.440Z,51.50
2023-03-13T06:36:21.070Z,51.40
2023-03-13T06:38:53.939Z,51.40
2023-03-13T06:41:24.517Z,51.30
2023-03-13T06:43:52.793Z,51.30
2023-03-13T06:46:20.779Z,51.30
2023-03-13T06:48:48.147Z,51.30
2023-03-13T06:51:21.394Z,51.20
2023-03-13T06:53:48.192Z,51.20
2023-03-13T06:56:14.917Z,51.20
2023-03-13T06:58:41.624Z,51.20
2023-03-13T07:01:11.925Z,51.10
2023-03-13T07:03:38.809Z,51.20
2023-03-13T07:06:08.640Z,51.20
2023-03-13T07:08:35.566Z,51.20
2023-03-13T07:11:03.271Z,51.20
2023-03-13T07:13:30.097Z,51.20
2023-03-13T07:16:00.018Z,51.20
2023-03-13T07:18:29.863Z,51.20
2023-03-13T07:20:57.313Z,51.20
2023-03-13T07:23:24.194Z,51.20
2023-03-13T07:25:57.835Z,51.10
2023-03-13T07:28:24.814Z,51.70
2023-03-13T07:30:51.598Z,51.10
2023-03-13T07:33:18.390Z,51.10
2023-03-13T07:35:51.650Z,51.00
2023-03-13T07:38:18.818Z,51.00
2023-03-13T07:40:52.161Z,51.00
2023-03-13T07:43:18.954Z,51.10
2023-03-13T07:45:59.047Z,50.90
2023-03-13T07:48:28.004Z,50.90
2023-03-13T07:51:01.079Z,50.90
2023-03-13T07:53:27.785Z,51.00
2023-03-13T07:55:57.743Z,51.00
2023-03-13T07:58:24.709Z,50.90
2023-03-13T08:00:51.606Z,51.00
2023-03-13T08:03:18.357Z,51.00
2023-03-13T08:06:11.560Z,51.10
2023-03-13T08:08:38.518Z,51.10
2023-03-13T08:11:12.217Z,51.10
2023-03-13T08:13:39.201Z,51.10
2023-03-13T08:16:16.003Z,51.10
2023-03-13T08:18:43.806Z,51.00
2023-03-13T08:21:14.337Z,51.00
2023-03-13T08:23:41.138Z,51.50
2023-03-13T08:26:11.822Z,50.90
2023-03-13T08:28:38.812Z,50.80
2023-03-13T08:31:08.793Z,50.80
2023-03-13T08:33:35.585Z,50.90
2023-03-13T08:36:10.720Z,50.80
2023-03-13T08:38:38.230Z,50.90
2023-03-13T08:41:05.096Z,50.80
2023-03-13T08:43:34.793Z,50.80
2023-03-13T08:46:01.543Z,50.90
2023-03-13T08:48:28.279Z,50.80
2023-03-13T08:51:04.212Z,50.80
2023-03-13T08:53:31.036Z,50.80
2023-03-13T08:56:04.693Z,50.80
2023-03-13T08:58:31.414Z,50.80
2023-03-13T09:01:04.906Z,50.80
2023-03-13T09:03:31.718Z,50.80
2023-03-13T09:05:58.856Z,50.80
2023-03-13T09:08:25.725Z,50.80
2023-03-13T09:10:56.629Z,50.80
2023-03-13T09:13:23.826Z,50.70
2023-03-13T09:15:56.571Z,50.60
2023-03-13T09:18:23.520Z,50.80
2023-03-13T09:20:50.276Z,50.70
2023-03-13T09:23:17.065Z,50.80
2023-03-13T09:25:50.167Z,50.70
2023-03-13T09:28:16.977Z,50.70
2023-03-13T09:30:43.726Z,50.80
2023-03-13T09:33:23.335Z,50.70
2023-03-13T09:36:06.443Z,50.70
2023-03-13T09:38:39.522Z,50.60
2023-03-13T09:41:41.683Z,50.70
2023-03-13T09:44:23.783Z,50.60
2023-03-13T09:47:06.448Z,50.50
2023-03-13T09:49:38.562Z,50.60
2023-03-13T09:52:21.888Z,50.60
2023-03-13T09:55:00.857Z,50.60
2023-03-13T09:57:35.848Z,50.50
2023-03-13T10:00:13.186Z,50.60
2023-03-13T10:02:44.529Z,50.50
2023-03-13T10:05:22.887Z,50.50
2023-03-13T10:07:55.066Z,50.60
2023-03-13T10:10:32.983Z,50.60
2023-03-13T10:13:07.379Z,50.50
2023-03-13T10:15:43.009Z,50.60
2023-03-13T10:18:29.693Z,50.60
2023-03-13T10:21:13.170Z,50.60
2023-03-13T10:23:45.016Z,50.70
2023-03-13T10:26:15.916Z,50.60
2023-03-13T10:28:43.126Z,50.70
2023-03-13T10:31:39.406Z,50.60
2023-03-13T10:34:15.404Z,50.70
2023-03-13T10:36:48.575Z,50.70
2023-03-13T10:39:22.478Z,50.60
2023-03-13T10:42:00.157Z,50.70
2023-03-13T10:44:43.580Z,50.60
2023-03-13T10:47:18.171Z,50.60
2023-03-13T10:49:58.533Z,50.50
2023-03-13T10:52:33.234Z,50.50
2023-03-13T10:55:16.244Z,50.50
2023-03-13T10:57:44.894Z,50.50
2023-03-13T11:00:30.651Z,50.50
2023-03-13T11:03:04.289Z,50.50
2023-03-13T11:05:41.027Z,50.50
2023-03-13T11:08:27.141Z,50.50
2023-03-13T11:10:58.454Z,50.50
2023-03-13T11:13:50.995Z,50.50
2023-03-13T11:16:30.201Z,50.50
2023-03-13T11:19:15.299Z,50.50
2023-03-13T11:21:56.806Z,50.60
2023-03-13T11:27:40.541Z,50.50
2023-03-13T11:30:10.239Z,50.50
2023-03-13T11:32:58.378Z,50.50
2023-03-13T11:35:41.032Z,50.50
2023-03-13T11:38:19.369Z,50.50
2023-03-13T11:41:08.068Z,50.40
2023-03-13T11:43:42.419Z,50.50
2023-03-13T11:46:15.978Z,50.40
2023-03-13T11:48:58.455Z,50.40
2023-03-13T11:51:49.620Z,50.30
2023-03-13T11:54:23.009Z,50.30
2023-03-13T11:57:15.709Z,50.30
2023-03-13T11:59:49.204Z,50.30
2023-03-13T12:02:24.987Z,50.30
2023-03-13T12:05:23.890Z,50.30
2023-03-13T12:07:58.769Z,50.30
2023-03-13T12:10:49.381Z,50.30
2023-03-13T12:13:18.107Z,50.30
2023-03-13T12:15:49.862Z,50.40
2023-03-13T12:18:41.155Z,50.30
2023-03-13T12:24:12.920Z,50.30
2023-03-13T12:27:18.698Z,50.30
2023-03-13T12:30:17.551Z,50.30
2023-03-13T12:33:04.714Z,50.30
2023-03-13T12:35:35.246Z,50.30
2023-03-13T12:38:04.908Z,50.30
2023-03-13T12:40:40.595Z,50.50
2023-03-13T12:43:11.002Z,50.50
2023-03-13T12:46:04.564Z,50.50
2023-03-13T12:48:41.966Z,50.40
2023-03-13T12:51:27.070Z,50.40
2023-03-13T12:54:12.331Z,50.40
2023-03-13T12:56:57.987Z,50.40
2023-03-13T12:59:26.845Z,50.50
2023-03-13T13:01:54.366Z,50.30
2023-03-13T13:04:25.040Z,50.30
2023-03-13T13:06:56.856Z,51.00
2023-03-13T13:09:37.683Z,50.40
2023-03-13T13:12:23.255Z,50.40
2023-03-13T13:14:50.104Z,50.40
2023-03-13T13:17:26.066Z,50.40
2023-03-13T13:19:58.982Z,50.40
2023-03-13T13:22:38.126Z,50.40
2023-03-13T13:25:04.938Z,50.40
2023-03-13T13:27:31.749Z,50.40
2023-03-13T13:29:59.252Z,50.40
2023-03-13T13:32:30.319Z,50.40
2023-03-13T13:35:09.317Z,50.40
2023-03-13T13:37:36.160Z,50.40
2023-03-13T13:40:29.258Z,50.40
2023-03-13T13:42:59.895Z,50.40
2023-03-13T13:45:26.666Z,50.30
2023-03-13T13:48:13.830Z,50.40
2023-03-13T13:50:40.520Z,50.30
2023-03-13T13:53:29.826Z,50.40
2023-03-13T13:55:58.734Z,50.30
2023-03-13T13:58:27.642Z,50.30
2023-03-13T14:01:00.883Z,50.30
2023-03-13T14:03:28.322Z,50.20
2023-03-13T14:06:12.311Z,50.20
2023-03-13T14:08:42.067Z,50.20
2023-03-13T14:11:15.083Z,50.20
2023-03-13T14:13:41.876Z,50.20
2023-03-13T14:16:35.159Z,50.20
2023-03-13T14:19:04.985Z,50.20
2023-03-13T14:21:38.634Z,50.20
2023-03-13T14:24:12.804Z,50.20
2023-03-13T14:26:39.659Z,50.20
2023-03-13T14:29:08.182Z,50.20
2023-03-13T14:31:36.143Z,50.20
2023-03-13T14:34:09.973Z,50.20
2023-03-13T14:36:47.488Z,50.20
2023-03-13T14:39:32.588Z,50.20
2023-03-13T14:42:06.749Z,50.20
2023-03-13T14:44:36.459Z,50.10
2023-03-13T14:47:07.643Z,49.90
2023-03-13T14:49:37.381Z,50.10
2023-03-13T14:52:04.185Z,50.10
2023-03-13T14:54:32.682Z,49.80
2023-03-13T14:57:24.047Z,50.10
2023-03-13T14:59:54.872Z,50.20
2023-03-13T15:02:30.199Z,50.20
2023-03-13T15:05:01.303Z,50.20
2023-03-13T15:07:44.051Z,50.10
2023-03-13T15:10:21.329Z,50.20
2023-03-13T15:12:57.667Z,50.20
2023-03-13T15:15:30.672Z,50.10
2023-03-13T15:17:57.554Z,50.10
2023-03-13T15:20:28.970Z,50.20
2023-03-13T15:23:01.892Z,50.10
2023-03-13T15:25:28.712Z,50.20
2023-03-13T15:27:55.645Z,50.10
2023-03-13T15:30:25.666Z,50.10
2023-03-13T15:32:52.670Z,50.20
2023-03-13T15:35:29.618Z,50.10
2023-03-13T15:37:57.359Z,50.80
2023-03-13T15:40:28.011Z,50.10
2023-03-13T15:43:00.883Z,50.10
2023-03-13T15:45:33.969Z,50.10
2023-03-13T15:48:00.853Z,50.10
2023-03-13T15:50:36.882Z,50.10
2023-03-13T15:53:17.030Z,50.10
2023-03-13T15:55:43.888Z,50.20
2023-03-13T15:58:12.759Z,50.10
2023-03-13T16:00:39.705Z,50.20
2023-03-13T16:03:06.486Z,50.20
2023-03-13T16:05:33.317Z,50.20
2023-03-13T16:08:00.031Z,50.20
2023-03-13T16:10:27.634Z,50.10
2023-03-13T16:12:54.590Z,50.20
2023-03-13T16:15:21.374Z,50.20
2023-03-13T16:17:48.070Z,50.10
2023-03-13T16:20:18.852Z,50.10
2023-03-13T16:22:46.816Z,50.70
2023-03-13T16:25:13.714Z,50.10
2023-03-13T16:27:41.987Z,50.30
2023-03-13T16:30:15.200Z,50.30
2023-03-13T16:32:41.969Z,50.30
2023-03-13T16:35:08.708Z,51.00
2023-03-13T16:37:35.392Z,50.30
2023-03-13T16:40:02.332Z,50.30
2023-03-13T16:42:29.065Z,50.40
2023-03-13T16:44:56.264Z,50.30
2023-03-13T16:47:25.258Z,50.30
2023-03-13T16:49:51.915Z,50.30
2023-03-13T16:52:18.736Z,50.30
2023-03-13T16:54:45.462Z,50.40
2023-03-13T16:57:14.484Z,50.30
2023-03-13T16:59:44.459Z,50.50
2023-03-13T17:02:15.112Z,50.60
2023-03-13T17:04:44.443Z,50.40
2023-03-13T17:07:29.869Z,50.70
2023-03-13T17:09:56.528Z,50.80
2023-03-13T17:12:32.602Z,50.80
2023-03-13T17:14:59.273Z,51.00
2023-03-13T17:17:25.953Z,51.10
2023-03-13T17:19:52.678Z,51.10
2023-03-13T17:22:21.520Z,51.10
2023-03-13T17:24:49.187Z,51.10
2023-03-13T17:27:16.375Z,51.10
2023-03-13T17:29:43.286Z,51.20
2023-03-13T17:32:13.410Z,51.10
2023-03-13T17:34:40.271Z,51.30
2023-03-13T17:37:14.388Z,51.80
2023-03-13T17:39:41.097Z,51.10
2023-03-13T17:42:08.097Z,51.20
2023-03-13T17:44:34.859Z,51.10
2023-03-13T17:47:01.558Z,51.20
2023-03-13T17:49:31.057Z,51.10
2023-03-13T17:51:57.752Z,51.00
2023-03-13T17:54:24.482Z,50.70
2023-03-13T17:56:52.269Z,50.80
2023-03-13T17:59:19.212Z,50.60
2023-03-13T18:01:46.002Z,50.70
2023-03-13T18:04:13.284Z,50.60
2023-03-13T18:06:42.406Z,50.60
2023-03-13T18:09:13.131Z,50.60
2023-03-13T18:11:45.883Z,50.70
2023-03-13T18:14:12.911Z,50.50
2023-03-13T18:16:42.892Z,50.60
2023-03-13T18:19:27.780Z,50.60
2023-03-13T18:21:54.929Z,50.60
2023-03-13T18:24:21.744Z,50.60
2023-03-13T18:26:51.608Z,50.60
2023-03-13T18:29:21.543Z,51.30
2023-03-13T18:31:48.305Z,50.60
2023-03-13T18:34:15.844Z,50.60
2023-03-13T18:36:45.521Z,50.60
2023-03-13T18:39:17.305Z,50.70
2023-03-13T18:41:47.499Z,50.80
2023-03-13T18:44:18.970Z,50.60
2023-03-13T18:46:45.657Z,50.60
2023-03-13T18:49:21.355Z,50.60
2023-03-13T18:51:48.536Z,50.70
2023-03-13T18:54:15.385Z,50.60
2023-03-13T18:56:43.815Z,50.60
2023-03-13T18:59:11.707Z,50.60
2023-03-13T19:01:38.513Z,50.60
2023-03-13T19:04:05.393Z,50.70
2023-03-13T19:06:32.839Z,50.60
2023-03-13T19:09:04.967Z,50.70
2023-03-13T19:11:33.883Z,50.60
2023-03-13T19:14:00.611Z,50.60
2023-03-13T19:16:28.332Z,50.60
2023-03-13T19:18:55.104Z,50.60
2023-03-13T19:21:25.722Z,50.60
2023-03-13T19:23:52.604Z,50.60
2023-03-13T19:26:22.817Z,50.60
2023-03-13T19:28:49.537Z,50.50
2023-03-13T19:31:17.701Z,50.50
2023-03-13T19:33:46.481Z,50.50
2023-03-13T19:36:19.871Z,50.50
2023-03-13T19:38:46.690Z,50.50
2023-03-13T19:41:13.668Z,50.50
2023-03-13T19:43:40.537Z,50.50
2023-03-13T19:46:16.438Z,50.50
2023-03-13T19:48:43.161Z,50.50
2023-03-13T19:51:09.865Z,50.50
2023-03-13T19:53:36.740Z,50.50
2023-03-13T19:56:05.890Z,50.50
2023-03-13T19:58:32.607Z,50.60
2023-03-13T20:01:11.335Z,50.60
2023-03-13T20:03:43.418Z,50.50
2023-03-13T20:06:20.147Z,50.60
2023-03-13T20:08:47.004Z,50.50
2023-03-13T20:11:14.055Z,50.50
2023-03-13T20:13:40.829Z,50.60
2023-03-13T20:16:07.702Z,50.40
2023-03-13T20:18:34.474Z,50.60
2023-03-13T20:21:01.211Z,50.60
2023-03-13T20:23:27.938Z,50.70
2023-03-13T20:25:54.741Z,50.70
2023-03-13T20:28:21.507Z,50.80
2023-03-13T20:30:48.846Z,50.80
2023-03-13T20:33:15.876Z,50.80
2023-03-13T20:35:49.003Z,50.80
2023-03-13T20:38:16.832Z,50.80
2023-03-13T20:40:43.737Z,50.90
2023-03-13T20:43:10.405Z,51.00
2023-03-13T20:45:37.136Z,51.50
2023-03-13T20:48:03.900Z,51.00
2023-03-13T20:50:30.787Z,50.90
2023-03-13T20:52:57.502Z,50.90
2023-03-13T20:55:24.305Z,50.90
2023-03-13T20:57:51.046Z,50.80
2023-03-13T21:00:18.060Z,50.80
2023-03-13T21:02:46.710Z,50.80
2023-03-13T21:05:13.557Z,50.80
2023-03-13T21:07:40.245Z,50.80
2023-03-13T21:10:07.299Z,50.80
2023-03-13T21:12:35.428Z,50.80
2023-03-13T21:15:06.181Z,50.80
2023-03-13T21:17:33.098Z,51.40
2023-03-13T21:20:07.691Z,50.70
2023-03-13T21:22:34.396Z,50.70
2023-03-13T21:25:02.480Z,50.70
2023-03-13T21:27:29.192Z,50.80
2023-03-13T21:29:55.885Z,50.70
2023-03-13T21:32:23.222Z,51.20
2023-03-13T21:34:50.041Z,50.70
2023-03-13T21:37:17.788Z,50.60
2023-03-13T21:39:44.923Z,50.60
2023-03-13T21:42:12.987Z,50.60
2023-03-13T21:44:39.849Z,50.50
2023-03-13T21:47:06.717Z,50.60
2023-03-13T21:49:33.469Z,50.50
2023-03-13T21:52:00.207Z,50.50
2023-03-13T21:54:26.880Z,50.50
2023-03-13T21:56:53.757Z,50.50
2023-03-13T21:59:21.855Z,50.50
2023-03-13T22:01:51.608Z,50.50
2023-03-13T22:04:21.404Z,50.50
2023-03-13T22:06:48.137Z,50.50
2023-03-13T22:09:15.236Z,50.50
2023-03-13T22:11:45.161Z,50.50
2023-03-13T22:14:11.953Z,50.40
2023-03-13T22:16:44.819Z,50.50
2023-03-13T22:19:12.946Z,50.50
2023-03-13T22:21:39.582Z,50.50
2023-03-13T22:24:07.880Z,50.40
2023-03-13T22:26:35.078Z,50.40
2023-03-13T22:29:01.721Z,50.50
2023-03-13T22:31:28.306Z,50.50
2023-03-13T22:33:54.985Z,50.50
2023-03-13T22:36:21.596Z,50.40
2023-03-13T22:38:48.401Z,50.50
2023-03-13T22:41:15.372Z,50.40
2023-03-13T22:43:41.965Z,50.40
2023-03-13T22:46:09.416Z,50.40
2023-03-13T22:48:36.094Z,50.40
2023-03-13T22:51:03.008Z,50.40
2023-03-13T22:53:29.889Z,50.40
2023-03-13T22:55:56.585Z,50.40
2023-03-13T22:58:23.194Z,50.40
2023-03-13T23:00:49.884Z,50.40
2023-03-13T23:03:17.713Z,50.40
2023-03-13T23:05:44.720Z,50.40
2023-03-13T23:08:11.582Z,50.50
2023-03-13T23:10:38.245Z,50.40
2023-03-13T23:13:04.880Z,50.40
2023-03-13T23:15:43.054Z,50.40
2023-03-13T23:18:14.327Z,51.10
2023-03-13T23:20:40.956Z,50.30
2023-03-13T23:23:07.653Z,50.40
2023-03-13T23:25:34.339Z,50.90
2023-03-13T23:28:00.913Z,50.40
2023-03-13T23:30:27.563Z,50.40
2023-03-13T23:32:54.270Z,50.40
2023-03-13T23:35:20.946Z,50.40
2023-03-13T23:37:48.370Z,50.40
2023-03-13T23:40:15.081Z,50.40
2023-03-13T23:42:44.038Z,50.40
2023-03-13T23:45:10.763Z,50.50
2023-03-13T23:47:37.356Z,50.40
2023-03-13T23:50:05.387Z,50.40
2023-03-13T23:52:35.469Z,50.40
2023-03-13T23:55:04.229Z,50.40
2023-03-13T23:57:30.843Z,50.40
2023-03-13T23:59:57.823Z,50.40
